createdAt,value
2022-11-24T00:01:07.618Z,100044.00
2022-11-24T00:03:35.457Z,100033.75
2022-11-24T00:06:04.851Z,100040.28
2022-11-24T00:08:31.657Z,100038.59
2022-11-24T00:11:04.111Z,100034.69
2022-11-24T00:13:30.983Z,100036.28
2022-11-24T00:16:05.640Z,100035.94
2022-11-24T00:18:32.778Z,100027.38
2022-11-24T00:20:59.512Z,100026.94
2022-11-24T00:23:26.816Z,100035.94
2022-11-24T00:25:53.982Z,100031.16
2022-11-24T00:28:20.771Z,100041.41
2022-11-24T00:30:47.659Z,100034.00
2022-11-24T00:33:14.643Z,100038.22
2022-11-24T00:35:41.582Z,100039.84
2022-11-24T00:38:08.542Z,100037.81
2022-11-24T00:40:35.645Z,100042.09
2022-11-24T00:43:02.579Z,100044.13
2022-11-24T00:45:29.381Z,100046.44
2022-11-24T00:47:56.353Z,100050.69
2022-11-24T00:50:23.129Z,100046.81
2022-11-24T00:52:49.939Z,100048.38
2022-11-24T00:55:16.857Z,100050.00
2022-11-24T00:57:43.619Z,100054.75
2022-11-24T01:00:10.683Z,100057.84
2022-11-24T01:02:37.728Z,100055.47
2022-11-24T01:05:04.942Z,100061.47
2022-11-24T01:07:31.957Z,100059.28
2022-11-24T01:09:58.977Z,100056.72
2022-11-24T01:12:25.844Z,100072.66
2022-11-24T01:14:52.581Z,100084.56
2022-11-24T01:17:19.442Z,100082.72
2022-11-24T01:19:47.275Z,100097.03
2022-11-24T01:22:14.024Z,100116.75
2022-11-24T01:24:41.222Z,100114.91
2022-11-24T01:27:08.771Z,100103.94
2022-11-24T01:29:35.690Z,100115.78
2022-11-24T01:32:02.585Z,100115.16
2022-11-24T01:34:29.417Z,100118.09
2022-11-24T01:36:56.221Z,100119.03
2022-11-24T01:39:23.354Z,100125.41
2022-11-24T01:41:50.111Z,100121.97
2022-11-24T01:44:28.197Z,100121.97
2022-11-24T01:47:00.619Z,100117.19
2022-11-24T01:49:38.065Z,100121.44
2022-11-24T01:52:10.977Z,100128.06
2022-11-24T01:54:59.612Z,100131.63
2022-11-24T01:57:35.632Z,100130.00
2022-11-24T02:00:07.564Z,100133.91
2022-11-24T02:02:45.281Z,100133.13
2022-11-24T02:05:24.272Z,100135.88
2022-11-24T02:07:54.309Z,100138.25
2022-11-24T02:10:22.122Z,100135.50
2022-11-24T02:12:52.110Z,100141.41
2022-11-24T02:15:20.319Z,100146.38
2022-11-24T02:17:47.369Z,100152.03
2022-11-24T02:20:15.509Z,100161.25
2022-11-24T02:22:51.154Z,100167.69
2022-11-24T02:25:47.504Z,100170.78
2022-11-24T02:28:19.003Z,100169.28
2022-11-24T02:30:46.114Z,100170.44
2022-11-24T02:33:13.702Z,100170.78
2022-11-24T02:35:40.649Z,100170.06
2022-11-24T02:38:07.717Z,100173.94
2022-11-24T02:40:35.454Z,100166.44
2022-11-24T02:43:08.044Z,100174.66
2022-11-24T02:45:34.966Z,100175.03
2022-11-24T02:48:02.211Z,100183.69
2022-11-24T02:50:28.989Z,100191.09
2022-11-24T02:52:55.746Z,100180.50
2022-11-24T02:55:23.633Z,100195.34
2022-11-24T02:57:50.845Z,100187.91
2022-11-24T03:00:18.407Z,100199.25
2022-11-24T03:02:45.413Z,100193.66
2022-11-24T03:05:13.253Z,100202.47
2022-11-24T03:07:40.187Z,100211.31
2022-11-24T03:10:07.719Z,100203.44
2022-11-24T03:12:34.591Z,100204.59
2022-11-24T03:15:03.204Z,100205.38
2022-11-24T03:17:30.088Z,100209.00
2022-11-24T03:20:01.511Z,100216.19
2022-11-24T03:22:31.287Z,100217.44
2022-11-24T03:24:58.181Z,100220.97
2022-11-24T03:27:25.106Z,100224.75
2022-11-24T03:29:52.199Z,100230.03
2022-11-24T03:32:19.170Z,100241.34
2022-11-24T03:34:46.031Z,100240.09
2022-11-24T03:37:13.090Z,100239.19
2022-11-24T03:39:40.025Z,100243.78
2022-11-24T03:42:07.042Z,100236.25
2022-11-24T03:44:34.066Z,100244.81
2022-11-24T03:47:01.022Z,100244.13
2022-11-24T03:49:27.804Z,100245.03
2022-11-24T03:51:54.560Z,100244.44
2022-11-24T03:54:22.066Z,100245.78
2022-11-24T03:56:48.829Z,100254.53
2022-11-24T03:59:15.609Z,100253.16
2022-11-24T04:01:42.772Z,100255.63
2022-11-24T04:04:11.664Z,100265.19
2022-11-24T04:06:38.787Z,100270.78
2022-11-24T04:09:06.060Z,100275.19
2022-11-24T04:11:51.382Z,100289.81
2022-11-24T04:14:19.517Z,100291.84
2022-11-24T04:16:46.627Z,100292.66
2022-11-24T04:19:13.485Z,100280.19
2022-11-24T04:21:40.605Z,100298.16
2022-11-24T04:24:07.443Z,100290.25
2022-11-24T04:26:34.189Z,100290.25
2022-11-24T04:29:01.245Z,100289.72
2022-11-24T04:31:28.277Z,100289.06
2022-11-24T04:33:55.161Z,100298.78
2022-11-24T04:36:22.168Z,100300.97
2022-11-24T04:39:24.421Z,100302.03
2022-11-24T04:41:35.911Z,100297.94
2022-11-24T04:44:02.681Z,100297.28
2022-11-24T04:46:29.451Z,100292.03
2022-11-24T04:48:56.324Z,100300.94
2022-11-24T04:51:23.111Z,100302.19
2022-11-24T04:53:49.917Z,100305.03
2022-11-24T04:56:16.796Z,100308.47
2022-11-24T04:58:43.533Z,100305.53
2022-11-24T05:01:10.367Z,100313.97
2022-11-24T05:03:37.536Z,100310.13
2022-11-24T05:06:04.569Z,100306.03
2022-11-24T05:08:31.432Z,100316.53
2022-11-24T05:11:03.182Z,100310.94
2022-11-24T05:13:30.018Z,100309.69
2022-11-24T05:15:56.942Z,100318.59
2022-11-24T05:18:23.987Z,100325.09
2022-11-24T05:20:50.749Z,100340.38
2022-11-24T05:23:17.564Z,100340.72
2022-11-24T05:25:47.653Z,100346.19
2022-11-24T05:28:14.822Z,100344.59
2022-11-24T05:30:41.788Z,100358.84
2022-11-24T05:33:16.205Z,100354.88
2022-11-24T05:35:43.083Z,100358.72
2022-11-24T05:38:10.095Z,100359.53
2022-11-24T05:40:37.832Z,100366.81
2022-11-24T05:43:04.619Z,100379.72
2022-11-24T05:45:31.564Z,100378.81
2022-11-24T05:48:06.011Z,100387.03
2022-11-24T05:50:33.842Z,100395.09
2022-11-24T05:53:18.600Z,100405.69
2022-11-24T05:55:45.354Z,100400.22
2022-11-24T05:58:12.173Z,100415.97
2022-11-24T06:00:39.575Z,100421.56
2022-11-24T06:03:07.155Z,100423.97
2022-11-24T06:05:34.101Z,100425.09
2022-11-24T06:08:01.142Z,100430.44
2022-11-24T06:10:28.376Z,100436.16
2022-11-24T06:12:55.267Z,100431.13
2022-11-24T06:15:22.452Z,100441.75
2022-11-24T06:17:56.412Z,100443.34
2022-11-24T06:20:28.310Z,100449.75
2022-11-24T06:22:59.008Z,100455.91
2022-11-24T06:25:26.543Z,100456.97
2022-11-24T06:27:53.372Z,100453.66
2022-11-24T06:30:20.489Z,100462.47
2022-11-24T06:32:49.599Z,100465.78
2022-11-24T06:35:17.376Z,100473.75
2022-11-24T06:37:45.815Z,100483.22
2022-11-24T06:40:13.199Z,100487.69
2022-11-24T06:42:40.002Z,100483.47
2022-11-24T06:45:09.299Z,100492.13
2022-11-24T06:47:37.547Z,100494.88
2022-11-24T06:50:04.827Z,100492.25
2022-11-24T06:52:31.594Z,100495.00
2022-11-24T06:54:58.732Z,100508.25
2022-11-24T06:57:26.350Z,100500.22
2022-11-24T06:59:53.195Z,100507.56
2022-11-24T07:02:20.164Z,100507.06
2022-11-24T07:04:46.925Z,100517.56
2022-11-24T07:07:13.762Z,100523.50
2022-11-24T07:09:40.962Z,100523.50
2022-11-24T07:12:07.858Z,100523.06
2022-11-24T07:14:35.049Z,100529.22
2022-11-24T07:17:02.926Z,100529.88
2022-11-24T07:19:29.776Z,100530.91
2022-11-24T07:21:57.050Z,100533.31
2022-11-24T07:24:24.013Z,100542.31
2022-11-24T07:26:50.925Z,100549.88
2022-11-24T07:29:17.917Z,100551.56
2022-11-24T07:31:46.252Z,100546.22
2022-11-24T07:34:14.818Z,100555.38
2022-11-24T07:36:42.955Z,100550.34
2022-11-24T07:39:09.951Z,100549.66
2022-11-24T07:41:37.091Z,100544.63
2022-11-24T07:44:04.109Z,100560.06
2022-11-24T07:46:31.063Z,100559.84
2022-11-24T07:48:58.090Z,100569.44
2022-11-24T07:51:25.060Z,100573.91
2022-11-24T07:53:51.955Z,100584.75
2022-11-24T07:56:18.759Z,100583.41
2022-11-24T07:58:49.803Z,100593.00
2022-11-24T08:01:20.268Z,100591.94
2022-11-24T08:03:47.660Z,100595.94
2022-11-24T08:06:25.004Z,100598.69
2022-11-24T08:08:53.654Z,100597.44
2022-11-24T08:11:20.537Z,100615.03
2022-11-24T08:13:47.467Z,100622.47
2022-11-24T08:16:16.919Z,100617.78
2022-11-24T08:18:44.651Z,100633.56
2022-11-24T08:21:14.690Z,100638.34
2022-11-24T08:23:42.123Z,100632.28
2022-11-24T08:26:16.057Z,100640.19
2022-11-24T08:28:44.240Z,100642.56
2022-11-24T08:31:18.701Z,100641.44
2022-11-24T08:33:46.196Z,100643.50
2022-11-24T08:36:15.973Z,100647.38
2022-11-24T08:38:44.676Z,100656.28
2022-11-24T08:41:16.443Z,100652.28
2022-11-24T08:43:43.901Z,100658.00
2022-11-24T08:46:17.261Z,100649.19
2022-11-24T08:48:51.930Z,100656.16
2022-11-24T08:51:21.859Z,100661.66
2022-11-24T08:53:48.772Z,100661.75
2022-11-24T08:56:15.973Z,100663.81
2022-11-24T08:58:43.225Z,100674.56
2022-11-24T09:01:13.198Z,100679.81
2022-11-24T09:03:45.009Z,100683.00
2022-11-24T09:06:16.902Z,100683.00
2022-11-24T09:08:43.840Z,100692.53
2022-11-24T09:11:13.608Z,100688.97
2022-11-24T09:13:41.292Z,100698.22
2022-11-24T09:16:29.353Z,100710.13
2022-11-24T09:18:58.831Z,100706.72
2022-11-24T09:21:25.608Z,100707.97
2022-11-24T09:23:54.858Z,100703.16
2022-11-24T09:26:27.628Z,100712.75
2022-11-24T09:28:56.062Z,100711.63
2022-11-24T09:31:32.396Z,100722.81
2022-11-24T09:33:59.611Z,100724.56
2022-11-24T09:36:26.437Z,100736.78
2022-11-24T09:38:53.519Z,100742.03
2022-11-24T09:41:39.423Z,100746.06
2022-11-24T09:44:31.482Z,100740.66
2022-11-24T09:47:07.407Z,100751.09
2022-11-24T09:50:01.042Z,100761.03
2022-11-24T09:52:49.377Z,100744.66
2022-11-24T09:55:28.920Z,100762.50
2022-11-24T09:58:40.679Z,100769.59
2022-11-24T10:01:19.941Z,100778.28
2022-11-24T10:03:50.443Z,100773.50
2022-11-24T10:06:31.161Z,100782.31
2022-11-24T10:09:19.051Z,100776.34
2022-11-24T10:11:51.046Z,100789.78
2022-11-24T10:14:23.868Z,100793.53
2022-11-24T10:16:56.903Z,100802.44
2022-11-24T10:19:39.470Z,100802.13
2022-11-24T10:22:20.644Z,100812.63
2022-11-24T10:25:22.986Z,100812.75
2022-11-24T10:27:56.518Z,100811.72
2022-11-24T10:30:26.456Z,100817.81
2022-11-24T10:32:58.403Z,100819.97
2022-11-24T10:35:35.616Z,100821.69
2022-11-24T10:38:25.355Z,100826.75
2022-11-24T10:40:58.025Z,100821.69
2022-11-24T10:43:28.192Z,100820.31
2022-11-24T10:46:12.056Z,100820.53
2022-11-24T10:48:45.860Z,100828.66
2022-11-24T10:51:31.331Z,100825.34
2022-11-24T10:54:05.977Z,100834.47
2022-11-24T10:56:43.757Z,100832.19
2022-11-24T10:59:38.258Z,100836.31
2022-11-24T11:02:39.265Z,100840.06
2022-11-24T11:05:42.563Z,100844.41
2022-11-24T11:08:32.751Z,100847.97
2022-11-24T11:11:20.576Z,100851.28
2022-11-24T11:13:58.175Z,100847.81
2022-11-24T11:16:41.057Z,100846.06
2022-11-24T11:19:48.451Z,100856.38
2022-11-24T11:22:24.551Z,100862.34
2022-11-24T11:25:23.290Z,100853.28
2022-11-24T11:27:50.591Z,100855.69
2022-11-24T11:36:11.754Z,100866.66
2022-11-24T11:38:40.759Z,100870.84
2022-11-24T11:41:19.428Z,100877.28
2022-11-24T11:43:50.852Z,100876.56
2022-11-24T11:46:17.950Z,100885.28
2022-11-24T11:48:46.905Z,100877.38
2022-11-24T11:51:38.882Z,100879.44
2022-11-24T11:54:26.965Z,100879.44
2022-11-24T11:57:04.412Z,100883.22
2022-11-24T11:59:49.510Z,100882.88
2022-11-24T12:02:22.203Z,100871.19
2022-11-24T12:05:18.865Z,100874.38
2022-11-24T12:08:06.405Z,100886.72
2022-11-24T12:10:50.854Z,100885.31
2022-11-24T12:13:29.961Z,100883.50
2022-11-24T12:16:03.020Z,100876.09
2022-11-24T12:18:59.287Z,100872.66
2022-11-24T12:21:36.092Z,100879.50
2022-11-24T12:24:28.742Z,100886.63
2022-11-24T12:27:19.360Z,100889.53
2022-11-24T12:30:18.252Z,100888.06
2022-11-24T12:33:08.918Z,100884.50
2022-11-24T12:35:46.335Z,100883.81
2022-11-24T12:38:15.847Z,100889.75
2022-11-24T12:40:51.955Z,100894.56
2022-11-24T12:43:37.126Z,100897.31
2022-11-24T12:46:19.801Z,100898.09
2022-11-24T12:48:52.709Z,100900.06
2022-11-24T12:51:28.467Z,100893.75
2022-11-24T12:53:58.374Z,100893.41
2022-11-24T12:56:41.720Z,100897.31
2022-11-24T12:59:49.819Z,100891.78
2022-11-24T13:02:25.959Z,100902.81
2022-11-24T13:05:05.099Z,100894.56
2022-11-24T13:07:46.440Z,100905.56
2022-11-24T13:10:46.904Z,100906.81
2022-11-24T13:13:14.778Z,100909.56
2022-11-24T13:18:44.273Z,100910.38
2022-11-24T13:21:29.787Z,100908.41
2022-11-24T13:24:22.083Z,100917.72
2022-11-24T13:27:09.068Z,100920.03
2022-11-24T13:29:37.953Z,100910.63
2022-11-24T13:32:05.046Z,100916.47
2022-11-24T13:34:41.277Z,100919.69
2022-11-24T13:37:35.723Z,100917.00
2022-11-24T13:40:12.375Z,100924.03
2022-11-24T13:42:57.908Z,100922.00
2022-11-24T13:45:41.984Z,100919.59
2022-11-24T13:48:21.727Z,100923.75
2022-11-24T13:50:53.264Z,100923.22
2022-11-24T13:53:20.061Z,100920.34
2022-11-24T13:56:21.927Z,100930.22
2022-11-24T13:59:01.316Z,100921.41
2022-11-24T14:01:29.101Z,100922.09
2022-11-24T14:04:30.563Z,100922.34
2022-11-24T14:07:07.906Z,100928.22
2022-11-24T14:09:35.971Z,100925.00
2022-11-24T14:12:15.295Z,100934.88
2022-11-24T14:14:44.413Z,100940.38
2022-11-24T14:17:29.245Z,100940.00
2022-11-24T14:19:57.998Z,100944.81
2022-11-24T14:22:31.983Z,100940.47
2022-11-24T14:25:01.118Z,100934.88
2022-11-24T14:27:34.544Z,100941.06
2022-11-24T14:30:06.157Z,100936.72
2022-11-24T14:32:32.883Z,100941.78
2022-11-24T14:34:59.779Z,100936.97
2022-11-24T14:37:26.813Z,100931.00
2022-11-24T14:39:53.761Z,100938.81
2022-11-24T14:42:24.165Z,100932.41
2022-11-24T14:44:59.033Z,100940.09
2022-11-24T14:47:31.669Z,100930.13
2022-11-24T14:50:16.856Z,100937.34
2022-11-24T14:52:56.684Z,100943.91
2022-11-24T14:55:31.724Z,100936.13
2022-11-24T14:58:00.053Z,100948.88
2022-11-24T15:00:29.748Z,100945.19
2022-11-24T15:03:18.090Z,100945.78
2022-11-24T15:05:56.616Z,100945.56
2022-11-24T15:08:26.774Z,100944.66
2022-11-24T15:11:11.794Z,100949.91
2022-11-24T15:13:39.090Z,100960.19
2022-11-24T15:16:07.961Z,100962.75
2022-11-24T15:18:46.014Z,100958.03
2022-11-24T15:21:18.834Z,100951.84
2022-11-24T15:24:24.960Z,100957.97
2022-11-24T15:27:00.183Z,100942.88
2022-11-24T15:29:27.266Z,100959.53
2022-11-24T15:31:54.113Z,100956.44
2022-11-24T15:34:20.999Z,100952.22
2022-11-24T15:36:48.005Z,100944.53
2022-11-24T15:39:14.819Z,100943.63
2022-11-24T15:41:42.342Z,100946.56
2022-11-24T15:44:10.349Z,100949.50
2022-11-24T15:46:40.138Z,100955.22
2022-11-24T15:49:07.269Z,100957.03
2022-11-24T15:51:35.768Z,100956.91
2022-11-24T15:54:02.751Z,100957.94
2022-11-24T15:56:32.902Z,100959.88
2022-11-24T15:59:00.525Z,100960.53
2022-11-24T16:01:33.966Z,100965.56
2022-11-24T16:04:02.075Z,100957.66
2022-11-24T16:06:29.037Z,100958.78
2022-11-24T16:08:57.723Z,100957.72
2022-11-24T16:11:24.842Z,100956.47
2022-11-24T16:13:53.752Z,100948.44
2022-11-24T16:16:23.588Z,100961.22
2022-11-24T16:18:50.826Z,100958.81
2022-11-24T16:21:17.716Z,100956.88
2022-11-24T16:23:45.598Z,100966.88
2022-11-24T16:26:12.618Z,100966.88
2022-11-24T16:28:39.375Z,100964.16
2022-11-24T16:31:06.649Z,100964.16
2022-11-24T16:33:33.620Z,100960.50
2022-11-24T16:36:00.428Z,100966.63
2022-11-24T16:38:27.261Z,100963.91
2022-11-24T16:40:56.448Z,100967.44
2022-11-24T16:43:24.599Z,100968.28
2022-11-24T16:46:17.803Z,100963.00
2022-11-24T16:48:46.480Z,100962.00
2022-11-24T16:51:13.971Z,100966.34
2022-11-24T16:53:41.527Z,100962.81
2022-11-24T16:56:09.269Z,100960.88
2022-11-24T16:58:40.992Z,100961.34
2022-11-24T17:01:10.953Z,100972.78
2022-11-24T17:03:38.536Z,100967.63
2022-11-24T17:06:07.936Z,100977.78
2022-11-24T17:08:36.198Z,100972.66
2022-11-24T17:11:06.944Z,100975.72
2022-11-24T17:13:34.084Z,100972.50
2022-11-24T17:16:09.742Z,100967.97
2022-11-24T17:18:37.093Z,100971.03
2022-11-24T17:21:09.565Z,100972.97
2022-11-24T17:23:37.756Z,100962.50
2022-11-24T17:26:07.071Z,100964.88
2022-11-24T17:28:35.441Z,100973.91
2022-11-24T17:31:18.049Z,100971.63
2022-11-24T17:33:44.969Z,100971.03
2022-11-24T17:36:11.741Z,100975.72
2022-11-24T17:38:38.731Z,100968.78
2022-11-24T17:41:06.007Z,100973.09
2022-11-24T17:43:33.106Z,100971.69
2022-11-24T17:46:02.289Z,100979.59
2022-11-24T17:48:30.605Z,100975.09
2022-11-24T17:51:10.229Z,100978.50
2022-11-24T17:53:37.521Z,100986.63
2022-11-24T17:56:04.657Z,100981.25
2022-11-24T17:58:33.124Z,100982.88
2022-11-24T18:01:00.936Z,100995.16
2022-11-24T18:03:28.954Z,100989.69
2022-11-24T18:05:56.324Z,100983.06
2022-11-24T18:08:24.103Z,100985.00
2022-11-24T18:10:50.920Z,100982.47
2022-11-24T18:13:40.730Z,100986.78
2022-11-24T18:16:08.378Z,100981.16
2022-11-24T18:18:40.110Z,100985.63
2022-11-24T18:21:11.710Z,100987.22
2022-11-24T18:23:38.696Z,100983.69
2022-11-24T18:26:06.604Z,100988.69
2022-11-24T18:28:35.424Z,100985.28
2022-11-24T18:31:08.056Z,100984.81
2022-11-24T18:33:39.827Z,100985.28
2022-11-24T18:36:07.933Z,100987.69
2022-11-24T18:38:37.064Z,100981.09
2022-11-24T18:41:05.774Z,100975.72
2022-11-24T18:43:35.842Z,100966.81
2022-11-24T18:46:12.542Z,100966.16
2022-11-24T18:48:39.480Z,100970.06
2022-11-24T18:51:08.404Z,100967.63
2022-11-24T18:53:35.637Z,100973.09
2022-11-24T18:56:07.491Z,100979.88
2022-11-24T18:58:35.775Z,100982.16
2022-11-24T19:01:20.889Z,100970.56
2022-11-24T19:03:53.531Z,100988.91
2022-11-24T19:06:32.633Z,100977.94
2022-11-24T19:09:02.580Z,100979.19
2022-11-24T19:11:35.782Z,100972.94
2022-11-24T19:14:04.977Z,100979.69
2022-11-24T19:16:32.452Z,100977.75
2022-11-24T19:19:00.315Z,100977.75
2022-11-24T19:21:29.950Z,100981.47
2022-11-24T19:24:02.923Z,100975.19
2022-11-24T19:26:31.909Z,100975.84
2022-11-24T19:29:00.726Z,100974.25
2022-11-24T19:31:27.608Z,100961.81
2022-11-24T19:33:55.481Z,100965.47
2022-11-24T19:36:22.815Z,100948.03
2022-11-24T19:38:51.849Z,100957.53
2022-11-24T19:41:20.340Z,100955.59
2022-11-24T19:43:48.306Z,100957.88
2022-11-24T19:46:18.071Z,100958.56
2022-11-24T19:48:47.303Z,100960.50
2022-11-24T19:51:19.253Z,100947.09
2022-11-24T19:53:46.909Z,100957.25
2022-11-24T19:56:19.491Z,100941.53
2022-11-24T19:58:47.565Z,100948.97
2022-11-24T20:01:20.026Z,100954.78
2022-11-24T20:03:53.536Z,100954.94
2022-11-24T20:06:20.774Z,100950.25
2022-11-24T20:08:47.640Z,100951.72
2022-11-24T20:11:19.516Z,100948.97
2022-11-24T20:13:48.611Z,100947.81
2022-11-24T20:16:26.894Z,100942.34
2022-11-24T20:18:56.496Z,100952.50
2022-11-24T20:21:25.842Z,100952.84
2022-11-24T20:24:01.351Z,100943.38
2022-11-24T20:26:34.510Z,100944.03
2022-11-24T20:29:02.759Z,100940.94
2022-11-24T20:31:42.089Z,100933.06
2022-11-24T20:34:10.105Z,100927.56
2022-11-24T20:36:40.655Z,100938.06
2022-11-24T20:39:12.193Z,100940.47
2022-11-24T20:41:40.194Z,100936.63
2022-11-24T20:44:10.598Z,100936.25
2022-11-24T20:46:39.951Z,100941.75
2022-11-24T20:49:08.548Z,100945.63
2022-11-24T20:51:39.115Z,100940.28
2022-11-24T20:54:08.258Z,100945.44
2022-11-24T20:56:39.860Z,100941.34
2022-11-24T20:59:07.837Z,100935.19
2022-11-24T21:01:38.911Z,100937.44
2022-11-24T21:04:08.409Z,100938.47
2022-11-24T21:06:36.038Z,100934.59
2022-11-24T21:09:04.470Z,100938.94
2022-11-24T21:11:32.420Z,100936.03
2022-11-24T21:14:00.361Z,100934.47
2022-11-24T21:16:29.644Z,100932.63
2022-11-24T21:19:01.544Z,100935.38
2022-11-24T21:21:34.693Z,100938.59
2022-11-24T21:24:06.352Z,100929.22
2022-11-24T21:26:38.108Z,100933.38
2022-11-24T21:29:05.805Z,100934.97
2022-11-24T21:31:36.870Z,100934.16
2022-11-24T21:34:05.131Z,100934.97
2022-11-24T21:36:34.882Z,100929.22
2022-11-24T21:39:03.471Z,100920.06
2022-11-24T21:41:33.269Z,100918.81
2022-11-24T21:44:00.470Z,100923.28
2022-11-24T21:46:29.795Z,100926.03
2022-11-24T21:48:56.555Z,100916.19
2022-11-24T21:51:23.371Z,100930.38
2022-11-24T21:53:50.275Z,100930.63
2022-11-24T21:56:19.724Z,100918.31
2022-11-24T21:58:48.894Z,100921.53
2022-11-24T22:01:17.832Z,100914.22
2022-11-24T22:03:45.793Z,100915.59
2022-11-24T22:06:13.429Z,100918.59
2022-11-24T22:08:40.597Z,100916.81
2022-11-24T22:11:11.739Z,100916.13
2022-11-24T22:13:39.035Z,100915.44
2022-11-24T22:16:07.356Z,100919.91
2022-11-24T22:18:39.718Z,100918.53
2022-11-24T22:21:08.202Z,100919.81
2022-11-24T22:23:36.087Z,100918.69
2022-11-24T22:26:07.144Z,100918.69
2022-11-24T22:28:57.357Z,100917.88
2022-11-24T22:31:29.277Z,100921.06
2022-11-24T22:33:57.201Z,100908.50
2022-11-24T22:36:26.391Z,100917.75
2022-11-24T22:39:04.411Z,100902.50
2022-11-24T22:41:33.525Z,100906.94
2022-11-24T22:44:00.409Z,100910.25
2022-11-24T22:46:29.881Z,100909.44
2022-11-24T22:48:59.156Z,100903.28
2022-11-24T22:51:34.242Z,100903.06
2022-11-24T22:54:02.912Z,100904.78
2022-11-24T22:56:32.458Z,100907.00
2022-11-24T22:59:01.406Z,100903.13
2022-11-24T23:01:29.775Z,100904.00
2022-11-24T23:03:56.727Z,100905.50
2022-11-24T23:06:26.400Z,100903.56
2022-11-24T23:08:53.996Z,100902.75
2022-11-24T23:11:29.745Z,100906.63
2022-11-24T23:14:02.378Z,100902.75
2022-11-24T23:16:29.746Z,100902.63
2022-11-24T23:18:56.859Z,100896.09
2022-11-24T23:21:29.077Z,100898.38
2022-11-24T23:23:58.313Z,100890.63
2022-11-24T23:26:30.264Z,100899.31
2022-11-24T23:28:57.174Z,100892.56
2022-11-24T23:31:29.104Z,100890.25
2022-11-24T23:33:58.423Z,100883.63
2022-11-24T23:36:26.109Z,100884.44
2022-11-24T23:38:53.341Z,100889.13
2022-11-24T23:41:23.113Z,100884.44
2022-11-24T23:43:50.756Z,100886.38
2022-11-24T23:46:23.135Z,100882.97
2022-11-24T23:48:52.333Z,100879.75
2022-11-24T23:51:24.877Z,100884.44
2022-11-24T23:53:52.417Z,100874.94
2022-11-24T23:56:27.847Z,100873.34
2022-11-24T23:58:54.731Z,100864.66
